PDT,Max TemperatureF,Mean TemperatureF,Min TemperatureF,Max Dew PointF,MeanDew PointF,Min DewpointF,Max Humidity, Mean Humidity, Min Humidity, Max Sea Level PressureIn, Mean Sea Level PressureIn, Min Sea Level PressureIn, Max VisibilityMiles, Mean VisibilityMiles, Min VisibilityMiles, Max Wind SpeedMPH, Mean Wind SpeedMPH, Max Gust SpeedMPH,PrecipitationIn, CloudCover, Events, WindDirDegrees
2013-3-1,51,44,37,45,41,36,93,82,71,30.36,30.32,30.28,10,10,4,17,11,22,0.01,6,,183
2013-3-2,53,46,39,39,38,36,93,74,58,30.29,30.09,29.87,10,10,10,24,9,30,0.00,5,,180
2013-3-3,44,37,30,36,23,19,80,56,37,30.16,29.99,29.86,10,10,10,28,16,33,0.00,6,,267
2013-3-4,44,34,24,27,19,12,93,58,27,30.27,30.19,30.08,10,10,10,14,9,,0.00,1,,33
2013-3-5,39,34,28,27,21,16,75,60,45,30.08,29.95,29.82,10,10,10,23,14,28,0.00,6,,26
2013-3-6,39,36,33,37,30,25,100,81,65,29.83,29.70,29.60,10,10,4,24,15,29,0.04,7,Thunderstorm,37
2013-3-7,42,35,28,43,34,27,100,93,70,30.06,29.99,29.84,10,8,0,13,9,,0.26,7,,152
2013-3-8,39,32,26,34,30,25,100,92,81,30.10,30.04,30.02,10,7,0,9,4,,0.00,6,,67
2013-3-9,48,36,23,37,27,19,100,75,34,30.39,30.28,30.11,10,7,0,12,2,,0.00,3,,254
2013-3-10,44,34,24,34,29,19,93,79,53,30.39,30.31,30.21,10,10,10,16,5,,0.00,4,,182
2013-3-11,48,40,32,34,28,21,93,69,34,30.30,30.25,30.21,10,10,7,14,5,20,0.00,3,,212
2013-3-12,50,42,33,50,38,27,100,87,65,30.21,30.11,30.04,10,10,5,15,7,18,0.07,8,,172
2013-3-13,55,50,44,45,42,39,93,76,58,30.19,30.14,30.08,10,10,10,14,9,20,0.02,7,,168
2013-3-14,60,50,39,45,40,34,93,69,47,30.14,30.05,29.97,10,10,10,16,6,23,0.00,4,,137
2013-3-15,55,47,39,43,37,32,87,69,47,30.15,30.08,30.00,10,10,10,17,8,17,0.04,6,,188
2013-3-16,50,44,35,39,36,28,87,77,62,30.04,29.87,29.66,10,10,4,24,9,39,0.05,7,,204
2013-3-17,46,38,30,30,25,19,87,67,39,29.98,29.87,29.69,10,10,3,23,15,32,0.02,6,,246
2013-3-18,42,34,26,34,25,19,87,76,56,30.15,30.01,29.94,10,9,1,23,5,29,0.01,5,,195
2013-3-19,48,34,21,30,24,18,93,70,32,30.26,30.12,29.85,10,9,0,14,4,,0.00,4,,63
2013-3-20,48,42,35,45,35,27,93,82,61,29.83,29.64,29.48,10,10,2,29,10,39,0.40,7,Thunderstorm,190
2013-3-21,41,36,30,28,24,19,80,65,49,29.99,29.93,29.78,10,10,7,25,15,33,0.00,6,,226
2013-3-22,37,32,26,28,24,21,86,74,56,30.22,30.09,29.99,10,10,2,12,7,18,0.00,4,,183
2013-3-23,39,29,19,27,22,14,93,72,48,30.32,30.27,30.22,10,10,1,15,5,20,0.00,3,,155
2013-3-24,44,32,21,27,19,14,100,62,31,30.34,30.26,30.17,10,10,10,10,4,,0.00,0,,62
2013-3-25,50,37,24,28,21,16,74,57,32,30.18,30.09,29.99,10,10,10,13,6,,0.00,2,,75
2013-3-26,55,42,28,32,26,19,81,59,36,30.00,29.97,29.93,10,10,10,15,7,17,0.00,0,,50
2013-3-27,53,42,30,39,33,25,87,69,54,29.99,29.97,29.95,10,10,10,14,7,16,0.00,5,,115
2013-3-28,59,46,33,43,37,30,93,75,45,30.08,30.04,30.00,10,10,9,13,4,,0.00,6,,116
2013-3-29,60,46,33,45,36,30,100,70,34,30.21,30.15,30.09,10,9,0,17,5,23,0.00,3,,183
2013-3-30,62,45,28,43,33,25,93,64,30,30.29,30.22,30.13,10,10,10,9,5,,0.00,0,,104
2013-3-31,68,49,30,41,34,25,93,61,26,30.13,30.04,29.93,10,10,2,13,6,,0.00,0,,67